sensor_id;sensor_type;location;lat;lon;timestamp;P1;durP1;ratioP1;P2;durP2;ratioP2
13457;SDS011;6801;53.018;11.560;2023-05-23T00:01:31;8.05;;;6.40;;
13457;SDS011;6801;53.018;11.560;2023-05-23T00:04:01;9.18;;;6.30;;
13457;SDS011;6801;53.018;11.560;2023-05-23T00:06:29;7.82;;;6.05;;
13457;SDS011;6801;53.018;11.560;2023-05-23T00:08:56;6.88;;;5.32;;
13457;SDS011;6801;53.018;11.560;2023-05-23T00:11:23;7.68;;;5.85;;
13457;SDS011;6801;53.018;11.560;2023-05-23T00:13:53;9.37;;;6.83;;
13457;SDS011;6801;53.018;11.560;2023-05-23T00:16:21;10.10;;;6.55;;
13457;SDS011;6801;53.018;11.560;2023-05-23T00:18:48;7.25;;;5.72;;
13457;SDS011;6801;53.018;11.560;2023-05-23T00:21:15;7.03;;;4.63;;
13457;SDS011;6801;53.018;11.560;2023-05-23T00:23:44;6.95;;;4.88;;
13457;SDS011;6801;53.018;11.560;2023-05-23T00:26:11;5.20;;;4.10;;
13457;SDS011;6801;53.018;11.560;2023-05-23T00:28:43;6.75;;;4.50;;
13457;SDS011;6801;53.018;11.560;2023-05-23T00:31:10;10.05;;;6.75;;
13457;SDS011;6801;53.018;11.560;2023-05-23T00:33:37;9.65;;;6.50;;
13457;SDS011;6801;53.018;11.560;2023-05-23T00:36:04;6.90;;;4.85;;
13457;SDS011;6801;53.018;11.560;2023-05-23T00:38:31;10.23;;;5.78;;
13457;SDS011;6801;53.018;11.560;2023-05-23T00:41:00;7.43;;;5.60;;
13457;SDS011;6801;53.018;11.560;2023-05-23T00:43:27;9.05;;;7.13;;
13457;SDS011;6801;53.018;11.560;2023-05-23T00:45:54;10.82;;;6.43;;
13457;SDS011;6801;53.018;11.560;2023-05-23T00:48:21;7.20;;;5.53;;
13457;SDS011;6801;53.018;11.560;2023-05-23T00:50:49;11.35;;;6.07;;
13457;SDS011;6801;53.018;11.560;2023-05-23T00:53:16;7.57;;;5.88;;
13457;SDS011;6801;53.018;11.560;2023-05-23T00:55:44;8.05;;;5.65;;
13457;SDS011;6801;53.018;11.560;2023-05-23T00:58:13;6.70;;;4.70;;
13457;SDS011;6801;53.018;11.560;2023-05-23T01:00:41;9.52;;;6.13;;
13457;SDS011;6801;53.018;11.560;2023-05-23T01:03:10;7.00;;;5.85;;
13457;SDS011;6801;53.018;11.560;2023-05-23T01:05:42;7.57;;;5.55;;
13457;SDS011;6801;53.018;11.560;2023-05-23T01:08:09;8.32;;;6.57;;
13457;SDS011;6801;53.018;11.560;2023-05-23T01:10:36;9.10;;;6.30;;
13457;SDS011;6801;53.018;11.560;2023-05-23T01:13:06;11.95;;;6.57;;
13457;SDS011;6801;53.018;11.560;2023-05-23T01:15:44;10.55;;;6.38;;
13457;SDS011;6801;53.018;11.560;2023-05-23T01:18:17;10.25;;;5.82;;
13457;SDS011;6801;53.018;11.560;2023-05-23T01:20:49;8.75;;;5.65;;
13457;SDS011;6801;53.018;11.560;2023-05-23T01:23:24;6.90;;;4.88;;
13457;SDS011;6801;53.018;11.560;2023-05-23T01:26:17;9.60;;;6.45;;
13457;SDS011;6801;53.018;11.560;2023-05-23T01:28:56;10.52;;;5.68;;
13457;SDS011;6801;53.018;11.560;2023-05-23T01:31:29;7.38;;;4.70;;
13457;SDS011;6801;53.018;11.560;2023-05-23T01:36:27;6.03;;;4.85;;
13457;SDS011;6801;53.018;11.560;2023-05-23T01:38:56;6.07;;;4.78;;
13457;SDS011;6801;53.018;11.560;2023-05-23T01:41:23;8.02;;;4.80;;
13457;SDS011;6801;53.018;11.560;2023-05-23T01:43:50;5.32;;;4.22;;
13457;SDS011;6801;53.018;11.560;2023-05-23T01:46:19;7.68;;;5.88;;
13457;SDS011;6801;53.018;11.560;2023-05-23T01:48:47;7.65;;;5.25;;
13457;SDS011;6801;53.018;11.560;2023-05-23T01:51:14;6.25;;;4.50;;
13457;SDS011;6801;53.018;11.560;2023-05-23T01:53:41;8.63;;;4.43;;
13457;SDS011;6801;53.018;11.560;2023-05-23T01:56:09;5.38;;;4.45;;
13457;SDS011;6801;53.018;11.560;2023-05-23T01:58:36;6.53;;;5.00;;
13457;SDS011;6801;53.018;11.560;2023-05-23T02:01:03;5.45;;;4.55;;
13457;SDS011;6801;53.018;11.560;2023-05-23T02:03:31;6.82;;;4.90;;
13457;SDS011;6801;53.018;11.560;2023-05-23T02:05:58;7.53;;;4.25;;
13457;SDS011;6801;53.018;11.560;2023-05-23T02:08:26;8.57;;;5.95;;
13457;SDS011;6801;53.018;11.560;2023-05-23T02:10:52;11.75;;;6.47;;
13457;SDS011;6801;53.018;11.560;2023-05-23T02:13:19;10.32;;;4.38;;
13457;SDS011;6801;53.018;11.560;2023-05-23T02:15:46;6.60;;;4.45;;
13457;SDS011;6801;53.018;11.560;2023-05-23T02:18:14;6.25;;;4.97;;
13457;SDS011;6801;53.018;11.560;2023-05-23T02:20:43;6.35;;;5.07;;
13457;SDS011;6801;53.018;11.560;2023-05-23T02:23:11;7.63;;;5.40;;
13457;SDS011;6801;53.018;11.560;2023-05-23T02:25:38;8.05;;;4.35;;
13457;SDS011;6801;53.018;11.560;2023-05-23T02:28:05;6.18;;;4.90;;
13457;SDS011;6801;53.018;11.560;2023-05-23T02:30:32;6.30;;;4.78;;
13457;SDS011;6801;53.018;11.560;2023-05-23T02:33:03;7.32;;;4.30;;
13457;SDS011;6801;53.018;11.560;2023-05-23T02:35:30;6.50;;;4.70;;
13457;SDS011;6801;53.018;11.560;2023-05-23T02:37:58;4.95;;;4.45;;
13457;SDS011;6801;53.018;11.560;2023-05-23T02:40:25;6.38;;;4.90;;
13457;SDS011;6801;53.018;11.560;2023-05-23T02:42:53;10.00;;;6.97;;
13457;SDS011;6801;53.018;11.560;2023-05-23T02:45:22;8.30;;;6.53;;
13457;SDS011;6801;53.018;11.560;2023-05-23T02:47:49;10.23;;;7.03;;
13457;SDS011;6801;53.018;11.560;2023-05-23T02:50:16;12.23;;;8.55;;
13457;SDS011;6801;53.018;11.560;2023-05-23T02:52:43;11.38;;;8.13;;
13457;SDS011;6801;53.018;11.560;2023-05-23T02:55:12;13.13;;;6.85;;
13457;SDS011;6801;53.018;11.560;2023-05-23T02:57:43;11.02;;;8.23;;
13457;SDS011;6801;53.018;11.560;2023-05-23T03:00:10;8.40;;;7.40;;
13457;SDS011;6801;53.018;11.560;2023-05-23T03:02:39;13.20;;;9.23;;
13457;SDS011;6801;53.018;11.560;2023-05-23T03:05:07;10.18;;;8.88;;
13457;SDS011;6801;53.018;11.560;2023-05-23T03:07:34;10.65;;;9.40;;
13457;SDS011;6801;53.018;11.560;2023-05-23T03:10:02;9.15;;;6.95;;
13457;SDS011;6801;53.018;11.560;2023-05-23T03:12:31;9.82;;;7.47;;
13457;SDS011;6801;53.018;11.560;2023-05-23T03:14:57;10.73;;;7.72;;
13457;SDS011;6801;53.018;11.560;2023-05-23T03:17:24;7.95;;;6.63;;
13457;SDS011;6801;53.018;11.560;2023-05-23T03:19:51;7.97;;;6.45;;
13457;SDS011;6801;53.018;11.560;2023-05-23T03:22:19;9.15;;;7.65;;
13457;SDS011;6801;53.018;11.560;2023-05-23T03:24:46;11.60;;;8.63;;
13457;SDS011;6801;53.018;11.560;2023-05-23T03:27:13;9.15;;;7.35;;
13457;SDS011;6801;53.018;11.560;2023-05-23T03:29:41;9.90;;;7.60;;
13457;SDS011;6801;53.018;11.560;2023-05-23T03:32:08;11.18;;;7.85;;
13457;SDS011;6801;53.018;11.560;2023-05-23T03:34:35;7.22;;;5.53;;
13457;SDS011;6801;53.018;11.560;2023-05-23T03:37:02;10.68;;;7.32;;
13457;SDS011;6801;53.018;11.560;2023-05-23T03:39:30;10.02;;;7.82;;
13457;SDS011;6801;53.018;11.560;2023-05-23T03:41:57;9.35;;;7.70;;
13457;SDS011;6801;53.018;11.560;2023-05-23T03:44:23;10.27;;;7.22;;
13457;SDS011;6801;53.018;11.560;2023-05-23T03:46:52;8.13;;;6.68;;
13457;SDS011;6801;53.018;11.560;2023-05-23T03:49:19;12.32;;;7.57;;
13457;SDS011;6801;53.018;11.560;2023-05-23T03:51:46;10.07;;;6.80;;
13457;SDS011;6801;53.018;11.560;2023-05-23T03:54:14;9.20;;;6.03;;
13457;SDS011;6801;53.018;11.560;2023-05-23T03:56:43;7.82;;;6.10;;
13457;SDS011;6801;53.018;11.560;2023-05-23T03:59:11;7.82;;;6.10;;
13457;SDS011;6801;53.018;11.560;2023-05-23T04:01:39;7.07;;;5.68;;
13457;SDS011;6801;53.018;11.560;2023-05-23T04:04:07;8.68;;;6.97;;
13457;SDS011;6801;53.018;11.560;2023-05-23T04:06:35;13.55;;;7.95;;
13457;SDS011;6801;53.018;11.560;2023-05-23T04:09:02;7.80;;;6.25;;
13457;SDS011;6801;53.018;11.560;2023-05-23T04:11:33;11.35;;;7.18;;
13457;SDS011;6801;53.018;11.560;2023-05-23T04:14:00;9.60;;;6.57;;
13457;SDS011;6801;53.018;11.560;2023-05-23T04:16:27;8.27;;;6.82;;
13457;SDS011;6801;53.018;11.560;2023-05-23T04:18:57;7.43;;;5.03;;
13457;SDS011;6801;53.018;11.560;2023-05-23T04:21:26;9.20;;;7.75;;
13457;SDS011;6801;53.018;11.560;2023-05-23T04:24:06;9.68;;;6.25;;
13457;SDS011;6801;53.018;11.560;2023-05-23T04:26:33;9.15;;;6.47;;
13457;SDS011;6801;53.018;11.560;2023-05-23T04:29:02;8.07;;;6.38;;
13457;SDS011;6801;53.018;11.560;2023-05-23T04:31:30;9.07;;;6.22;;
13457;SDS011;6801;53.018;11.560;2023-05-23T04:33:59;9.40;;;7.88;;
13457;SDS011;6801;53.018;11.560;2023-05-23T04:36:30;11.52;;;7.28;;
13457;SDS011;6801;53.018;11.560;2023-05-23T04:38:57;8.95;;;7.55;;
13457;SDS011;6801;53.018;11.560;2023-05-23T04:41:25;9.77;;;6.82;;
13457;SDS011;6801;53.018;11.560;2023-05-23T04:44:30;13.23;;;7.43;;
13457;SDS011;6801;53.018;11.560;2023-05-23T04:47:19;9.38;;;7.50;;
13457;SDS011;6801;53.018;11.560;2023-05-23T04:49:57;12.05;;;7.78;;
13457;SDS011;6801;53.018;11.560;2023-05-23T04:52:26;8.20;;;6.55;;
13457;SDS011;6801;53.018;11.560;2023-05-23T04:54:53;7.30;;;5.63;;
13457;SDS011;6801;53.018;11.560;2023-05-23T04:57:20;8.63;;;6.90;;
13457;SDS011;6801;53.018;11.560;2023-05-23T04:59:47;7.82;;;6.00;;
13457;SDS011;6801;53.018;11.560;2023-05-23T05:02:14;10.63;;;7.40;;
13457;SDS011;6801;53.018;11.560;2023-05-23T05:04:42;10.32;;;7.18;;
13457;SDS011;6801;53.018;11.560;2023-05-23T05:07:09;8.68;;;7.25;;
13457;SDS011;6801;53.018;11.560;2023-05-23T05:09:39;9.50;;;7.60;;
13457;SDS011;6801;53.018;11.560;2023-05-23T05:12:07;10.35;;;6.75;;
13457;SDS011;6801;53.018;11.560;2023-05-23T05:14:34;9.68;;;7.00;;
13457;SDS011;6801;53.018;11.560;2023-05-23T05:17:03;9.38;;;8.05;;
13457;SDS011;6801;53.018;11.560;2023-05-23T05:19:37;13.48;;;8.40;;
13457;SDS011;6801;53.018;11.560;2023-05-23T05:22:05;12.13;;;7.75;;
13457;SDS011;6801;53.018;11.560;2023-05-23T05:24:32;9.88;;;8.82;;
13457;SDS011;6801;53.018;11.560;2023-05-23T05:27:00;9.63;;;6.97;;
13457;SDS011;6801;53.018;11.560;2023-05-23T05:29:28;9.27;;;7.65;;
13457;SDS011;6801;53.018;11.560;2023-05-23T05:31:55;10.60;;;8.05;;
13457;SDS011;6801;53.018;11.560;2023-05-23T05:34:22;13.63;;;7.45;;
13457;SDS011;6801;53.018;11.560;2023-05-23T05:36:49;11.68;;;8.85;;
13457;SDS011;6801;53.018;11.560;2023-05-23T05:41:48;10.35;;;7.97;;
13457;SDS011;6801;53.018;11.560;2023-05-23T05:44:16;12.88;;;10.18;;
13457;SDS011;6801;53.018;11.560;2023-05-23T05:46:44;15.15;;;10.80;;
13457;SDS011;6801;53.018;11.560;2023-05-23T05:49:12;10.75;;;8.98;;
13457;SDS011;6801;53.018;11.560;2023-05-23T05:51:40;13.95;;;11.55;;
13457;SDS011;6801;53.018;11.560;2023-05-23T05:54:07;11.98;;;8.82;;
13457;SDS011;6801;53.018;11.560;2023-05-23T05:56:34;13.20;;;11.20;;
13457;SDS011;6801;53.018;11.560;2023-05-23T05:59:02;13.13;;;8.35;;
13457;SDS011;6801;53.018;11.560;2023-05-23T06:01:31;10.40;;;8.38;;
13457;SDS011;6801;53.018;11.560;2023-05-23T06:04:00;10.00;;;8.25;;
13457;SDS011;6801;53.018;11.560;2023-05-23T06:06:27;17.20;;;12.25;;
13457;SDS011;6801;53.018;11.560;2023-05-23T06:08:54;15.45;;;13.38;;
13457;SDS011;6801;53.018;11.560;2023-05-23T06:11:21;16.40;;;12.40;;
13457;SDS011;6801;53.018;11.560;2023-05-23T06:13:48;19.05;;;13.73;;
13457;SDS011;6801;53.018;11.560;2023-05-23T06:16:15;21.15;;;15.57;;
13457;SDS011;6801;53.018;11.560;2023-05-23T06:18:44;17.25;;;14.20;;
13457;SDS011;6801;53.018;11.560;2023-05-23T06:21:11;19.98;;;15.20;;
13457;SDS011;6801;53.018;11.560;2023-05-23T06:23:38;16.60;;;12.60;;
13457;SDS011;6801;53.018;11.560;2023-05-23T06:26:05;20.85;;;14.73;;
13457;SDS011;6801;53.018;11.560;2023-05-23T06:28:35;17.48;;;14.20;;
13457;SDS011;6801;53.018;11.560;2023-05-23T06:31:03;18.98;;;15.63;;
13457;SDS011;6801;53.018;11.560;2023-05-23T06:33:30;23.38;;;16.23;;
13457;SDS011;6801;53.018;11.560;2023-05-23T06:35:58;18.88;;;15.15;;
13457;SDS011;6801;53.018;11.560;2023-05-23T06:38:25;18.00;;;12.75;;
13457;SDS011;6801;53.018;11.560;2023-05-23T06:40:53;24.02;;;17.00;;
13457;SDS011;6801;53.018;11.560;2023-05-23T06:43:20;18.10;;;13.85;;
13457;SDS011;6801;53.018;11.560;2023-05-23T06:45:51;25.95;;;18.42;;
13457;SDS011;6801;53.018;11.560;2023-05-23T06:48:19;25.98;;;17.83;;
13457;SDS011;6801;53.018;11.560;2023-05-23T06:50:46;21.08;;;16.38;;
13457;SDS011;6801;53.018;11.560;2023-05-23T06:53:15;25.30;;;19.13;;
13457;SDS011;6801;53.018;11.560;2023-05-23T06:55:42;25.73;;;18.30;;
13457;SDS011;6801;53.018;11.560;2023-05-23T07:00:40;25.75;;;17.88;;
13457;SDS011;6801;53.018;11.560;2023-05-23T07:03:16;24.63;;;18.90;;
13457;SDS011;6801;53.018;11.560;2023-05-23T07:05:43;26.23;;;18.92;;
13457;SDS011;6801;53.018;11.560;2023-05-23T07:08:10;25.75;;;18.33;;
13457;SDS011;6801;53.018;11.560;2023-05-23T07:13:29;21.48;;;14.40;;
13457;SDS011;6801;53.018;11.560;2023-05-23T07:15:56;28.25;;;19.02;;
13457;SDS011;6801;53.018;11.560;2023-05-23T07:18:23;28.58;;;19.42;;
13457;SDS011;6801;53.018;11.560;2023-05-23T07:20:50;26.90;;;18.35;;
13457;SDS011;6801;53.018;11.560;2023-05-23T07:23:19;26.70;;;17.23;;
13457;SDS011;6801;53.018;11.560;2023-05-23T07:25:50;27.85;;;19.92;;
13457;SDS011;6801;53.018;11.560;2023-05-23T07:28:23;20.20;;;14.50;;
13457;SDS011;6801;53.018;11.560;2023-05-23T07:30:52;21.67;;;14.98;;
13457;SDS011;6801;53.018;11.560;2023-05-23T07:33:21;23.73;;;16.80;;
13457;SDS011;6801;53.018;11.560;2023-05-23T07:35:49;26.38;;;13.25;;
13457;SDS011;6801;53.018;11.560;2023-05-23T07:38:16;17.60;;;11.93;;
13457;SDS011;6801;53.018;11.560;2023-05-23T07:40:43;19.55;;;14.00;;
13457;SDS011;6801;53.018;11.560;2023-05-23T07:43:11;22.10;;;15.40;;
13457;SDS011;6801;53.018;11.560;2023-05-23T07:45:38;18.50;;;12.98;;
13457;SDS011;6801;53.018;11.560;2023-05-23T07:48:05;18.98;;;13.60;;
13457;SDS011;6801;53.018;11.560;2023-05-23T07:50:32;19.80;;;14.93;;
13457;SDS011;6801;53.018;11.560;2023-05-23T07:52:59;19.92;;;15.48;;
13457;SDS011;6801;53.018;11.560;2023-05-23T07:55:29;16.73;;;10.80;;
13457;SDS011;6801;53.018;11.560;2023-05-23T07:57:56;22.77;;;15.23;;
13457;SDS011;6801;53.018;11.560;2023-05-23T08:00:26;18.75;;;12.13;;
13457;SDS011;6801;53.018;11.560;2023-05-23T08:03:00;16.27;;;11.32;;
13457;SDS011;6801;53.018;11.560;2023-05-23T08:05:34;19.75;;;13.60;;
13457;SDS011;6801;53.018;11.560;2023-05-23T08:08:01;17.70;;;12.07;;
13457;SDS011;6801;53.018;11.560;2023-05-23T08:10:29;17.08;;;12.00;;
13457;SDS011;6801;53.018;11.560;2023-05-23T08:13:03;18.45;;;11.77;;
13457;SDS011;6801;53.018;11.560;2023-05-23T08:15:36;13.73;;;9.68;;
13457;SDS011;6801;53.018;11.560;2023-05-23T08:18:12;14.85;;;10.27;;
13457;SDS011;6801;53.018;11.560;2023-05-23T08:20:39;18.02;;;13.10;;
13457;SDS011;6801;53.018;11.560;2023-05-23T08:23:06;18.92;;;12.00;;
13457;SDS011;6801;53.018;11.560;2023-05-23T08:25:33;12.60;;;9.45;;
13457;SDS011;6801;53.018;11.560;2023-05-23T08:28:00;21.80;;;13.35;;
13457;SDS011;6801;53.018;11.560;2023-05-23T08:30:51;18.70;;;12.95;;
13457;SDS011;6801;53.018;11.560;2023-05-23T08:33:18;17.45;;;12.30;;
13457;SDS011;6801;53.018;11.560;2023-05-23T08:35:48;18.70;;;12.75;;
13457;SDS011;6801;53.018;11.560;2023-05-23T08:38:17;17.55;;;12.38;;
13457;SDS011;6801;53.018;11.560;2023-05-23T08:40:58;17.20;;;11.35;;
13457;SDS011;6801;53.018;11.560;2023-05-23T08:43:28;15.40;;;11.57;;
13457;SDS011;6801;53.018;11.560;2023-05-23T08:45:57;18.95;;;13.57;;
13457;SDS011;6801;53.018;11.560;2023-05-23T08:48:27;13.30;;;9.40;;
13457;SDS011;6801;53.018;11.560;2023-05-23T08:50:54;18.42;;;11.00;;
13457;SDS011;6801;53.018;11.560;2023-05-23T08:53:23;17.30;;;13.13;;
13457;SDS011;6801;53.018;11.560;2023-05-23T08:56:01;19.02;;;13.20;;
13457;SDS011;6801;53.018;11.560;2023-05-23T08:58:38;18.23;;;11.57;;
13457;SDS011;6801;53.018;11.560;2023-05-23T09:01:08;19.77;;;13.07;;
13457;SDS011;6801;53.018;11.560;2023-05-23T09:06:15;15.15;;;10.18;;
13457;SDS011;6801;53.018;11.560;2023-05-23T09:08:46;16.35;;;11.15;;
13457;SDS011;6801;53.018;11.560;2023-05-23T09:11:15;15.82;;;10.50;;
13457;SDS011;6801;53.018;11.560;2023-05-23T09:13:43;17.45;;;12.27;;
13457;SDS011;6801;53.018;11.560;2023-05-23T09:16:16;15.48;;;11.23;;
13457;SDS011;6801;53.018;11.560;2023-05-23T09:18:52;16.50;;;12.20;;
13457;SDS011;6801;53.018;11.560;2023-05-23T09:21:20;18.98;;;13.18;;
13457;SDS011;6801;53.018;11.560;2023-05-23T09:23:56;15.18;;;10.45;;
13457;SDS011;6801;53.018;11.560;2023-05-23T09:26:25;16.38;;;11.45;;
13457;SDS011;6801;53.018;11.560;2023-05-23T09:28:55;15.88;;;9.90;;
13457;SDS011;6801;53.018;11.560;2023-05-23T09:31:26;17.92;;;11.95;;
13457;SDS011;6801;53.018;11.560;2023-05-23T09:33:56;15.15;;;10.35;;
13457;SDS011;6801;53.018;11.560;2023-05-23T09:36:25;15.18;;;10.10;;
13457;SDS011;6801;53.018;11.560;2023-05-23T09:38:54;17.92;;;11.10;;
13457;SDS011;6801;53.018;11.560;2023-05-23T09:41:21;14.55;;;9.20;;
13457;SDS011;6801;53.018;11.560;2023-05-23T09:43:50;13.25;;;7.95;;
13457;SDS011;6801;53.018;11.560;2023-05-23T09:46:18;16.60;;;10.75;;
13457;SDS011;6801;53.018;11.560;2023-05-23T09:48:47;13.27;;;8.27;;
13457;SDS011;6801;53.018;11.560;2023-05-23T09:51:17;13.93;;;9.13;;
13457;SDS011;6801;53.018;11.560;2023-05-23T09:53:46;10.18;;;7.38;;
13457;SDS011;6801;53.018;11.560;2023-05-23T09:56:13;14.15;;;8.90;;
13457;SDS011;6801;53.018;11.560;2023-05-23T09:58:42;11.63;;;8.35;;
13457;SDS011;6801;53.018;11.560;2023-05-23T10:01:12;10.23;;;7.35;;
13457;SDS011;6801;53.018;11.560;2023-05-23T10:03:43;12.38;;;8.40;;
13457;SDS011;6801;53.018;11.560;2023-05-23T10:06:14;15.25;;;9.88;;
13457;SDS011;6801;53.018;11.560;2023-05-23T10:08:49;12.13;;;7.78;;
13457;SDS011;6801;53.018;11.560;2023-05-23T10:14:16;9.65;;;7.43;;
13457;SDS011;6801;53.018;11.560;2023-05-23T10:16:47;11.60;;;7.85;;
13457;SDS011;6801;53.018;11.560;2023-05-23T10:19:22;13.38;;;8.77;;
13457;SDS011;6801;53.018;11.560;2023-05-23T10:21:54;11.88;;;7.38;;
13457;SDS011;6801;53.018;11.560;2023-05-23T10:24:24;15.23;;;9.82;;
13457;SDS011;6801;53.018;11.560;2023-05-23T10:26:52;14.38;;;9.40;;
13457;SDS011;6801;53.018;11.560;2023-05-23T10:29:20;12.15;;;8.00;;
13457;SDS011;6801;53.018;11.560;2023-05-23T10:31:47;15.07;;;9.43;;
13457;SDS011;6801;53.018;11.560;2023-05-23T10:34:16;12.20;;;8.57;;
13457;SDS011;6801;53.018;11.560;2023-05-23T10:36:54;13.38;;;10.32;;
13457;SDS011;6801;53.018;11.560;2023-05-23T10:39:30;14.05;;;6.88;;
13457;SDS011;6801;53.018;11.560;2023-05-23T10:42:10;15.27;;;9.57;;
13457;SDS011;6801;53.018;11.560;2023-05-23T10:44:42;16.52;;;10.38;;
13457;SDS011;6801;53.018;11.560;2023-05-23T10:47:09;12.85;;;8.43;;
13457;SDS011;6801;53.018;11.560;2023-05-23T10:49:37;18.13;;;10.45;;
13457;SDS011;6801;53.018;11.560;2023-05-23T10:52:07;16.30;;;11.45;;
13457;SDS011;6801;53.018;11.560;2023-05-23T10:54:35;14.52;;;9.70;;
13457;SDS011;6801;53.018;11.560;2023-05-23T10:57:02;18.52;;;11.65;;
13457;SDS011;6801;53.018;11.560;2023-05-23T10:59:29;17.83;;;11.73;;
13457;SDS011;6801;53.018;11.560;2023-05-23T11:01:57;18.30;;;12.88;;
13457;SDS011;6801;53.018;11.560;2023-05-23T11:04:26;16.27;;;10.82;;
13457;SDS011;6801;53.018;11.560;2023-05-23T11:06:54;20.50;;;13.15;;
13457;SDS011;6801;53.018;11.560;2023-05-23T11:09:23;16.15;;;10.98;;
13457;SDS011;6801;53.018;11.560;2023-05-23T11:11:50;16.45;;;11.68;;
13457;SDS011;6801;53.018;11.560;2023-05-23T11:14:18;12.55;;;9.40;;
13457;SDS011;6801;53.018;11.560;2023-05-23T11:16:45;12.88;;;9.32;;
13457;SDS011;6801;53.018;11.560;2023-05-23T11:19:20;11.55;;;8.55;;
13457;SDS011;6801;53.018;11.560;2023-05-23T11:21:51;15.57;;;9.27;;
13457;SDS011;6801;53.018;11.560;2023-05-23T11:24:20;7.78;;;4.50;;
13457;SDS011;6801;53.018;11.560;2023-05-23T11:26:56;12.32;;;6.72;;
13457;SDS011;6801;53.018;11.560;2023-05-23T11:29:25;11.60;;;7.85;;
13457;SDS011;6801;53.018;11.560;2023-05-23T11:31:54;12.48;;;6.80;;
13457;SDS011;6801;53.018;11.560;2023-05-23T11:34:21;8.82;;;5.43;;
13457;SDS011;6801;53.018;11.560;2023-05-23T11:36:51;12.45;;;5.95;;
13457;SDS011;6801;53.018;11.560;2023-05-23T11:39:19;7.75;;;5.38;;
13457;SDS011;6801;53.018;11.560;2023-05-23T11:41:49;15.77;;;5.68;;
13457;SDS011;6801;53.018;11.560;2023-05-23T11:44:25;7.93;;;5.85;;
13457;SDS011;6801;53.018;11.560;2023-05-23T11:46:58;7.60;;;5.13;;
13457;SDS011;6801;53.018;11.560;2023-05-23T11:49:27;6.90;;;5.28;;
13457;SDS011;6801;53.018;11.560;2023-05-23T11:51:54;6.88;;;4.25;;
13457;SDS011;6801;53.018;11.560;2023-05-23T11:54:22;7.13;;;4.43;;
13457;SDS011;6801;53.018;11.560;2023-05-23T11:56:49;6.55;;;4.32;;
13457;SDS011;6801;53.018;11.560;2023-05-23T11:59:17;7.10;;;4.53;;
13457;SDS011;6801;53.018;11.560;2023-05-23T12:01:44;5.13;;;3.33;;
13457;SDS011;6801;53.018;11.560;2023-05-23T12:04:11;11.25;;;3.85;;
13457;SDS011;6801;53.018;11.560;2023-05-23T12:06:38;6.35;;;3.50;;
13457;SDS011;6801;53.018;11.560;2023-05-23T12:09:06;6.18;;;3.25;;
13457;SDS011;6801;53.018;11.560;2023-05-23T12:11:33;8.73;;;4.07;;
13457;SDS011;6801;53.018;11.560;2023-05-23T12:14:01;5.15;;;3.40;;
13457;SDS011;6801;53.018;11.560;2023-05-23T12:16:33;5.18;;;3.45;;
13457;SDS011;6801;53.018;11.560;2023-05-23T12:19:01;4.13;;;3.15;;
13457;SDS011;6801;53.018;11.560;2023-05-23T12:21:39;6.22;;;3.03;;
13457;SDS011;6801;53.018;11.560;2023-05-23T12:24:14;6.28;;;2.60;;
13457;SDS011;6801;53.018;11.560;2023-05-23T12:26:46;5.10;;;2.92;;
13457;SDS011;6801;53.018;11.560;2023-05-23T12:29:13;5.25;;;2.63;;
13457;SDS011;6801;53.018;11.560;2023-05-23T12:31:43;6.32;;;3.75;;
13457;SDS011;6801;53.018;11.560;2023-05-23T12:34:12;5.43;;;2.72;;
13457;SDS011;6801;53.018;11.560;2023-05-23T12:36:39;4.07;;;2.53;;
13457;SDS011;6801;53.018;11.560;2023-05-23T12:39:07;4.32;;;2.75;;
13457;SDS011;6801;53.018;11.560;2023-05-23T12:41:34;4.40;;;2.42;;
13457;SDS011;6801;53.018;11.560;2023-05-23T12:44:01;4.13;;;2.47;;
13457;SDS011;6801;53.018;11.560;2023-05-23T12:46:28;3.33;;;2.05;;
13457;SDS011;6801;53.018;11.560;2023-05-23T12:48:57;4.65;;;2.47;;
13457;SDS011;6801;53.018;11.560;2023-05-23T12:51:24;3.10;;;2.15;;
13457;SDS011;6801;53.018;11.560;2023-05-23T12:53:51;4.03;;;2.10;;
13457;SDS011;6801;53.018;11.560;2023-05-23T12:56:19;5.95;;;2.90;;
13457;SDS011;6801;53.018;11.560;2023-05-23T12:58:46;5.18;;;2.45;;
13457;SDS011;6801;53.018;11.560;2023-05-23T13:01:13;4.47;;;2.50;;
13457;SDS011;6801;53.018;11.560;2023-05-23T13:03:40;3.40;;;2.00;;
13457;SDS011;6801;53.018;11.560;2023-05-23T13:06:08;4.65;;;1.65;;
13457;SDS011;6801;53.018;11.560;2023-05-23T13:08:36;2.90;;;1.90;;
13457;SDS011;6801;53.018;11.560;2023-05-23T13:11:03;2.90;;;1.38;;
13457;SDS011;6801;53.018;11.560;2023-05-23T13:13:30;4.25;;;1.90;;
13457;SDS011;6801;53.018;11.560;2023-05-23T13:15:57;2.55;;;1.52;;
13457;SDS011;6801;53.018;11.560;2023-05-23T13:18:24;2.47;;;1.40;;
13457;SDS011;6801;53.018;11.560;2023-05-23T13:20:51;2.25;;;1.38;;
13457;SDS011;6801;53.018;11.560;2023-05-23T13:23:20;1.25;;;0.90;;
13457;SDS011;6801;53.018;11.560;2023-05-23T13:25:47;2.35;;;1.15;;
13457;SDS011;6801;53.018;11.560;2023-05-23T13:28:14;1.30;;;1.13;;
13457;SDS011;6801;53.018;11.560;2023-05-23T13:30:41;1.80;;;1.10;;
13457;SDS011;6801;53.018;11.560;2023-05-23T13:33:08;1.27;;;0.68;;
13457;SDS011;6801;53.018;11.560;2023-05-23T13:35:36;1.02;;;0.77;;
13457;SDS011;6801;53.018;11.560;2023-05-23T13:38:03;2.40;;;1.27;;
13457;SDS011;6801;53.018;11.560;2023-05-23T13:40:31;2.75;;;1.40;;
13457;SDS011;6801;53.018;11.560;2023-05-23T13:42:58;1.92;;;0.95;;
13457;SDS011;6801;53.018;11.560;2023-05-23T13:45:25;3.28;;;1.02;;
13457;SDS011;6801;53.018;11.560;2023-05-23T13:47:52;1.90;;;0.85;;
13457;SDS011;6801;53.018;11.560;2023-05-23T13:50:19;3.20;;;1.35;;
13457;SDS011;6801;53.018;11.560;2023-05-23T13:52:46;2.80;;;1.73;;
13457;SDS011;6801;53.018;11.560;2023-05-23T13:55:13;2.05;;;1.17;;
13457;SDS011;6801;53.018;11.560;2023-05-23T13:57:41;3.28;;;1.77;;
13457;SDS011;6801;53.018;11.560;2023-05-23T14:00:08;5.07;;;1.65;;
13457;SDS011;6801;53.018;11.560;2023-05-23T14:02:36;3.08;;;1.55;;
13457;SDS011;6801;53.018;11.560;2023-05-23T14:05:04;3.00;;;1.45;;
13457;SDS011;6801;53.018;11.560;2023-05-23T14:07:32;3.72;;;1.70;;
13457;SDS011;6801;53.018;11.560;2023-05-23T14:09:59;2.85;;;1.50;;
13457;SDS011;6801;53.018;11.560;2023-05-23T14:12:26;5.55;;;1.98;;
13457;SDS011;6801;53.018;11.560;2023-05-23T14:14:55;6.07;;;1.98;;
13457;SDS011;6801;53.018;11.560;2023-05-23T14:17:22;5.93;;;1.95;;
13457;SDS011;6801;53.018;11.560;2023-05-23T14:19:49;8.45;;;2.28;;
13457;SDS011;6801;53.018;11.560;2023-05-23T14:22:16;5.30;;;2.55;;
13457;SDS011;6801;53.018;11.560;2023-05-23T14:24:43;7.88;;;1.67;;
13457;SDS011;6801;53.018;11.560;2023-05-23T14:27:10;3.80;;;1.85;;
13457;SDS011;6801;53.018;11.560;2023-05-23T14:29:37;6.38;;;2.00;;
13457;SDS011;6801;53.018;11.560;2023-05-23T14:32:05;4.85;;;1.90;;
13457;SDS011;6801;53.018;11.560;2023-05-23T14:34:33;6.20;;;2.60;;
13457;SDS011;6801;53.018;11.560;2023-05-23T14:37:00;7.90;;;2.22;;
13457;SDS011;6801;53.018;11.560;2023-05-23T14:39:27;5.30;;;2.00;;
13457;SDS011;6801;53.018;11.560;2023-05-23T14:41:54;7.88;;;2.22;;
13457;SDS011;6801;53.018;11.560;2023-05-23T14:44:21;5.97;;;2.50;;
13457;SDS011;6801;53.018;11.560;2023-05-23T14:46:48;11.98;;;2.70;;
13457;SDS011;6801;53.018;11.560;2023-05-23T14:49:17;4.38;;;2.05;;
13457;SDS011;6801;53.018;11.560;2023-05-23T14:51:44;6.10;;;2.28;;
13457;SDS011;6801;53.018;11.560;2023-05-23T14:54:11;5.45;;;2.13;;
13457;SDS011;6801;53.018;11.560;2023-05-23T14:56:39;7.22;;;2.38;;
13457;SDS011;6801;53.018;11.560;2023-05-23T14:59:07;8.00;;;2.17;;
13457;SDS011;6801;53.018;11.560;2023-05-23T15:01:35;5.72;;;2.88;;
13457;SDS011;6801;53.018;11.560;2023-05-23T15:04:02;7.70;;;1.90;;